sensor_id;sensor_type;location;lat;lon;timestamp;P1;durP1;ratioP1;P2;durP2;ratioP2
49824;SDS011;35714;55.708;37.478;2022-09-28T00:02:03;6.35;;;1.92;;
49824;SDS011;35714;55.708;37.478;2022-09-28T00:04:30;4.75;;;1.75;;
49824;SDS011;35714;55.708;37.478;2022-09-28T00:06:57;4.13;;;1.70;;
49824;SDS011;35714;55.708;37.478;2022-09-28T00:09:23;3.85;;;1.80;;
49824;SDS011;35714;55.708;37.478;2022-09-28T00:11:49;5.10;;;2.20;;
49824;SDS011;35714;55.708;37.478;2022-09-28T00:14:14;6.55;;;2.17;;
49824;SDS011;35714;55.708;37.478;2022-09-28T00:16:41;3.95;;;1.73;;
49824;SDS011;35714;55.708;37.478;2022-09-28T00:19:08;3.15;;;1.60;;
49824;SDS011;35714;55.708;37.478;2022-09-28T00:21:35;3.60;;;1.63;;
49824;SDS011;35714;55.708;37.478;2022-09-28T00:24:03;3.40;;;1.35;;
49824;SDS011;35714;55.708;37.478;2022-09-28T00:26:53;3.88;;;1.77;;
49824;SDS011;35714;55.708;37.478;2022-09-28T00:29:24;4.07;;;1.70;;
49824;SDS011;35714;55.708;37.478;2022-09-28T00:31:52;4.72;;;1.60;;
49824;SDS011;35714;55.708;37.478;2022-09-28T00:34:24;4.20;;;1.70;;
49824;SDS011;35714;55.708;37.478;2022-09-28T00:36:50;4.28;;;1.80;;
49824;SDS011;35714;55.708;37.478;2022-09-28T00:39:16;4.30;;;1.52;;
49824;SDS011;35714;55.708;37.478;2022-09-28T00:41:43;3.38;;;1.65;;
49824;SDS011;35714;55.708;37.478;2022-09-28T00:46:59;3.10;;;1.45;;
49824;SDS011;35714;55.708;37.478;2022-09-28T00:52:53;2.58;;;1.20;;
49824;SDS011;35714;55.708;37.478;2022-09-28T00:58:37;2.53;;;1.20;;
49824;SDS011;35714;55.708;37.478;2022-09-28T01:01:05;3.42;;;1.40;;
49824;SDS011;35714;55.708;37.478;2022-09-28T01:03:32;3.33;;;1.40;;
49824;SDS011;35714;55.708;37.478;2022-09-28T01:05:59;3.17;;;1.50;;
49824;SDS011;35714;55.708;37.478;2022-09-28T01:08:28;3.83;;;1.45;;
49824;SDS011;35714;55.708;37.478;2022-09-28T01:10:56;6.10;;;1.42;;
49824;SDS011;35714;55.708;37.478;2022-09-28T01:13:24;3.47;;;1.70;;
49824;SDS011;35714;55.708;37.478;2022-09-28T01:18:42;3.80;;;1.75;;
49824;SDS011;35714;55.708;37.478;2022-09-28T01:21:20;3.85;;;1.52;;
49824;SDS011;35714;55.708;37.478;2022-09-28T01:28:48;3.33;;;1.33;;
49824;SDS011;35714;55.708;37.478;2022-09-28T01:31:21;2.53;;;1.27;;
49824;SDS011;35714;55.708;37.478;2022-09-28T01:34:02;3.05;;;1.45;;
49824;SDS011;35714;55.708;37.478;2022-09-28T01:36:34;2.55;;;1.00;;
49824;SDS011;35714;55.708;37.478;2022-09-28T01:39:10;2.88;;;1.30;;
49824;SDS011;35714;55.708;37.478;2022-09-28T01:41:39;2.67;;;1.20;;
49824;SDS011;35714;55.708;37.478;2022-09-28T01:44:09;2.83;;;1.20;;
49824;SDS011;35714;55.708;37.478;2022-09-28T01:46:47;4.03;;;1.10;;
49824;SDS011;35714;55.708;37.478;2022-09-28T01:49:19;2.50;;;1.10;;
49824;SDS011;35714;55.708;37.478;2022-09-28T01:54:18;3.83;;;1.33;;
49824;SDS011;35714;55.708;37.478;2022-09-28T01:56:54;1.92;;;0.82;;
49824;SDS011;35714;55.708;37.478;2022-09-28T01:59:29;2.45;;;1.02;;
49824;SDS011;35714;55.708;37.478;2022-09-28T02:02:00;2.92;;;1.10;;
49824;SDS011;35714;55.708;37.478;2022-09-28T02:04:41;4.30;;;1.17;;
49824;SDS011;35714;55.708;37.478;2022-09-28T02:07:13;2.45;;;0.95;;
49824;SDS011;35714;55.708;37.478;2022-09-28T02:09:52;2.50;;;0.90;;
49824;SDS011;35714;55.708;37.478;2022-09-28T02:14:58;3.08;;;1.42;;
49824;SDS011;35714;55.708;37.478;2022-09-28T02:17:35;1.73;;;0.73;;
49824;SDS011;35714;55.708;37.478;2022-09-28T02:20:01;1.98;;;0.75;;
49824;SDS011;35714;55.708;37.478;2022-09-28T02:22:32;2.10;;;0.90;;
49824;SDS011;35714;55.708;37.478;2022-09-28T02:25:09;2.63;;;1.00;;
49824;SDS011;35714;55.708;37.478;2022-09-28T02:30:10;2.03;;;0.85;;
49824;SDS011;35714;55.708;37.478;2022-09-28T02:32:37;2.00;;;0.80;;
49824;SDS011;35714;55.708;37.478;2022-09-28T02:35:08;3.67;;;1.00;;
49824;SDS011;35714;55.708;37.478;2022-09-28T02:37:35;2.40;;;0.90;;
49824;SDS011;35714;55.708;37.478;2022-09-28T02:40:01;2.22;;;0.88;;
49824;SDS011;35714;55.708;37.478;2022-09-28T02:42:33;2.45;;;0.95;;
49824;SDS011;35714;55.708;37.478;2022-09-28T02:48:14;2.33;;;0.95;;
49824;SDS011;35714;55.708;37.478;2022-09-28T02:56:00;2.17;;;0.98;;
49824;SDS011;35714;55.708;37.478;2022-09-28T03:01:14;2.30;;;1.00;;
49824;SDS011;35714;55.708;37.478;2022-09-28T03:06:58;2.40;;;1.10;;
49824;SDS011;35714;55.708;37.478;2022-09-28T03:09:38;2.40;;;0.95;;
49824;SDS011;35714;55.708;37.478;2022-09-28T03:12:12;2.55;;;0.95;;
49824;SDS011;35714;55.708;37.478;2022-09-28T03:14:40;3.78;;;1.05;;
49824;SDS011;35714;55.708;37.478;2022-09-28T03:17:06;1.90;;;0.85;;
49824;SDS011;35714;55.708;37.478;2022-09-28T03:19:32;2.55;;;1.10;;
49824;SDS011;35714;55.708;37.478;2022-09-28T03:21:59;3.25;;;1.15;;
49824;SDS011;35714;55.708;37.478;2022-09-28T03:24:25;2.72;;;1.10;;
49824;SDS011;35714;55.708;37.478;2022-09-28T03:26:51;3.13;;;1.00;;
49824;SDS011;35714;55.708;37.478;2022-09-28T03:29:17;2.53;;;0.80;;
49824;SDS011;35714;55.708;37.478;2022-09-28T03:31:47;2.35;;;0.90;;
49824;SDS011;35714;55.708;37.478;2022-09-28T03:34:13;1.95;;;0.85;;
49824;SDS011;35714;55.708;37.478;2022-09-28T03:36:40;2.30;;;0.95;;
49824;SDS011;35714;55.708;37.478;2022-09-28T03:39:07;4.43;;;0.82;;
49824;SDS011;35714;55.708;37.478;2022-09-28T03:41:32;2.53;;;0.90;;
49824;SDS011;35714;55.708;37.478;2022-09-28T03:43:58;2.45;;;0.90;;
49824;SDS011;35714;55.708;37.478;2022-09-28T03:46:26;2.75;;;0.88;;
49824;SDS011;35714;55.708;37.478;2022-09-28T03:48:56;3.83;;;1.35;;
49824;SDS011;35714;55.708;37.478;2022-09-28T03:51:23;3.55;;;0.90;;
49824;SDS011;35714;55.708;37.478;2022-09-28T03:53:48;3.00;;;0.93;;
49824;SDS011;35714;55.708;37.478;2022-09-28T03:56:14;2.10;;;0.90;;
49824;SDS011;35714;55.708;37.478;2022-09-28T03:58:40;2.58;;;0.70;;
49824;SDS011;35714;55.708;37.478;2022-09-28T04:01:09;2.03;;;0.93;;
49824;SDS011;35714;55.708;37.478;2022-09-28T04:03:38;4.65;;;1.23;;
49824;SDS011;35714;55.708;37.478;2022-09-28T04:06:04;3.13;;;0.90;;
49824;SDS011;35714;55.708;37.478;2022-09-28T04:08:29;2.72;;;0.75;;
49824;SDS011;35714;55.708;37.478;2022-09-28T04:10:56;5.68;;;0.82;;
49824;SDS011;35714;55.708;37.478;2022-09-28T04:13:22;2.78;;;0.80;;
49824;SDS011;35714;55.708;37.478;2022-09-28T04:15:53;2.25;;;0.95;;
49824;SDS011;35714;55.708;37.478;2022-09-28T04:18:21;1.88;;;0.70;;
49824;SDS011;35714;55.708;37.478;2022-09-28T04:21:15;3.20;;;0.90;;
49824;SDS011;35714;55.708;37.478;2022-09-28T04:24:08;1.33;;;0.50;;
49824;SDS011;35714;55.708;37.478;2022-09-28T04:26:35;2.70;;;1.10;;
49824;SDS011;35714;55.708;37.478;2022-09-28T04:29:01;3.40;;;1.20;;
49824;SDS011;35714;55.708;37.478;2022-09-28T04:32:01;2.22;;;0.93;;
49824;SDS011;35714;55.708;37.478;2022-09-28T04:34:35;3.92;;;1.50;;
49824;SDS011;35714;55.708;37.478;2022-09-28T04:37:01;2.58;;;1.20;;
49824;SDS011;35714;55.708;37.478;2022-09-28T04:39:27;2.10;;;0.90;;
49824;SDS011;35714;55.708;37.478;2022-09-28T04:41:54;2.58;;;0.82;;
49824;SDS011;35714;55.708;37.478;2022-09-28T04:44:20;2.95;;;0.70;;
49824;SDS011;35714;55.708;37.478;2022-09-28T04:46:47;2.38;;;0.70;;
49824;SDS011;35714;55.708;37.478;2022-09-28T04:49:45;2.45;;;0.90;;
49824;SDS011;35714;55.708;37.478;2022-09-28T04:52:23;2.63;;;1.08;;
49824;SDS011;35714;55.708;37.478;2022-09-28T04:54:51;3.10;;;0.88;;
49824;SDS011;35714;55.708;37.478;2022-09-28T04:57:16;2.47;;;1.17;;
49824;SDS011;35714;55.708;37.478;2022-09-28T04:59:42;2.20;;;0.90;;
49824;SDS011;35714;55.708;37.478;2022-09-28T05:02:08;2.38;;;0.93;;
49824;SDS011;35714;55.708;37.478;2022-09-28T05:05:00;3.03;;;1.20;;
49824;SDS011;35714;55.708;37.478;2022-09-28T05:07:57;2.13;;;0.95;;
49824;SDS011;35714;55.708;37.478;2022-09-28T05:10:23;5.88;;;1.05;;
49824;SDS011;35714;55.708;37.478;2022-09-28T05:12:49;2.67;;;0.80;;
49824;SDS011;35714;55.708;37.478;2022-09-28T05:15:15;2.20;;;0.90;;
49824;SDS011;35714;55.708;37.478;2022-09-28T05:17:42;2.80;;;0.95;;
49824;SDS011;35714;55.708;37.478;2022-09-28T05:20:18;3.10;;;0.88;;
49824;SDS011;35714;55.708;37.478;2022-09-28T05:22:44;3.10;;;0.90;;
49824;SDS011;35714;55.708;37.478;2022-09-28T05:25:10;2.50;;;0.77;;
49824;SDS011;35714;55.708;37.478;2022-09-28T05:28:04;2.88;;;1.02;;
49824;SDS011;35714;55.708;37.478;2022-09-28T05:30:50;5.72;;;1.33;;
49824;SDS011;35714;55.708;37.478;2022-09-28T05:33:42;2.90;;;0.93;;
49824;SDS011;35714;55.708;37.478;2022-09-28T05:36:10;2.28;;;0.95;;
49824;SDS011;35714;55.708;37.478;2022-09-28T05:38:36;3.55;;;1.15;;
49824;SDS011;35714;55.708;37.478;2022-09-28T05:41:02;2.15;;;0.90;;
49824;SDS011;35714;55.708;37.478;2022-09-28T05:43:29;2.00;;;0.80;;
49824;SDS011;35714;55.708;37.478;2022-09-28T05:45:55;2.60;;;0.98;;
49824;SDS011;35714;55.708;37.478;2022-09-28T05:48:20;2.10;;;0.75;;
49824;SDS011;35714;55.708;37.478;2022-09-28T05:50:52;2.63;;;1.00;;
49824;SDS011;35714;55.708;37.478;2022-09-28T05:53:19;2.75;;;1.00;;
49824;SDS011;35714;55.708;37.478;2022-09-28T05:55:45;2.67;;;1.15;;
49824;SDS011;35714;55.708;37.478;2022-09-28T05:58:11;2.40;;;0.90;;
49824;SDS011;35714;55.708;37.478;2022-09-28T06:00:37;2.38;;;1.15;;
49824;SDS011;35714;55.708;37.478;2022-09-28T06:03:04;2.70;;;1.10;;
49824;SDS011;35714;55.708;37.478;2022-09-28T06:05:35;3.60;;;1.20;;
49824;SDS011;35714;55.708;37.478;2022-09-28T06:08:01;2.75;;;1.08;;
49824;SDS011;35714;55.708;37.478;2022-09-28T06:10:29;3.03;;;0.98;;
49824;SDS011;35714;55.708;37.478;2022-09-28T06:12:58;3.78;;;1.15;;
49824;SDS011;35714;55.708;37.478;2022-09-28T06:15:25;2.80;;;0.90;;
49824;SDS011;35714;55.708;37.478;2022-09-28T06:18:12;2.65;;;0.90;;
49824;SDS011;35714;55.708;37.478;2022-09-28T06:21:01;3.10;;;1.42;;
49824;SDS011;35714;55.708;37.478;2022-09-28T06:23:32;2.53;;;0.77;;
49824;SDS011;35714;55.708;37.478;2022-09-28T06:25:58;3.08;;;1.13;;
49824;SDS011;35714;55.708;37.478;2022-09-28T06:28:24;2.20;;;1.00;;
49824;SDS011;35714;55.708;37.478;2022-09-28T06:30:51;5.20;;;1.00;;
49824;SDS011;35714;55.708;37.478;2022-09-28T06:33:17;2.70;;;0.95;;
49824;SDS011;35714;55.708;37.478;2022-09-28T06:35:44;2.17;;;0.73;;
49824;SDS011;35714;55.708;37.478;2022-09-28T06:38:10;2.15;;;0.85;;
49824;SDS011;35714;55.708;37.478;2022-09-28T06:40:36;1.98;;;0.82;;
49824;SDS011;35714;55.708;37.478;2022-09-28T06:43:03;2.60;;;0.75;;
49824;SDS011;35714;55.708;37.478;2022-09-28T06:46:06;3.17;;;1.10;;
49824;SDS011;35714;55.708;37.478;2022-09-28T06:48:48;4.05;;;1.08;;
49824;SDS011;35714;55.708;37.478;2022-09-28T06:51:35;5.03;;;0.98;;
49824;SDS011;35714;55.708;37.478;2022-09-28T06:54:10;3.05;;;1.08;;
49824;SDS011;35714;55.708;37.478;2022-09-28T06:56:46;3.25;;;1.00;;
49824;SDS011;35714;55.708;37.478;2022-09-28T06:59:12;4.47;;;1.55;;
49824;SDS011;35714;55.708;37.478;2022-09-28T07:01:38;2.90;;;0.85;;
49824;SDS011;35714;55.708;37.478;2022-09-28T07:04:07;2.33;;;0.95;;
49824;SDS011;35714;55.708;37.478;2022-09-28T07:06:45;4.82;;;0.90;;
49824;SDS011;35714;55.708;37.478;2022-09-28T07:09:27;4.38;;;1.17;;
49824;SDS011;35714;55.708;37.478;2022-09-28T07:12:06;5.10;;;0.90;;
49824;SDS011;35714;55.708;37.478;2022-09-28T07:15:04;2.47;;;0.85;;
49824;SDS011;35714;55.708;37.478;2022-09-28T07:17:32;2.38;;;1.08;;
49824;SDS011;35714;55.708;37.478;2022-09-28T07:20:00;3.63;;;1.13;;
49824;SDS011;35714;55.708;37.478;2022-09-28T07:22:28;2.75;;;1.10;;
49824;SDS011;35714;55.708;37.478;2022-09-28T07:24:54;7.55;;;1.05;;
49824;SDS011;35714;55.708;37.478;2022-09-28T07:27:40;2.80;;;1.17;;
49824;SDS011;35714;55.708;37.478;2022-09-28T07:30:31;2.72;;;1.20;;
49824;SDS011;35714;55.708;37.478;2022-09-28T07:33:10;4.32;;;1.35;;
49824;SDS011;35714;55.708;37.478;2022-09-28T07:35:51;2.67;;;1.00;;
49824;SDS011;35714;55.708;37.478;2022-09-28T07:38:19;3.38;;;1.20;;
49824;SDS011;35714;55.708;37.478;2022-09-28T07:40:45;3.08;;;1.10;;
49824;SDS011;35714;55.708;37.478;2022-09-28T07:43:29;3.20;;;1.00;;
49824;SDS011;35714;55.708;37.478;2022-09-28T07:45:55;6.15;;;0.90;;
49824;SDS011;35714;55.708;37.478;2022-09-28T07:48:22;3.00;;;0.82;;
49824;SDS011;35714;55.708;37.478;2022-09-28T07:50:57;2.60;;;1.00;;
49824;SDS011;35714;55.708;37.478;2022-09-28T07:53:43;4.72;;;1.50;;
49824;SDS011;35714;55.708;37.478;2022-09-28T07:56:33;3.40;;;1.50;;
49824;SDS011;35714;55.708;37.478;2022-09-28T07:59:04;5.05;;;1.65;;
49824;SDS011;35714;55.708;37.478;2022-09-28T08:01:38;3.13;;;1.20;;
49824;SDS011;35714;55.708;37.478;2022-09-28T08:04:04;4.10;;;1.50;;
49824;SDS011;35714;55.708;37.478;2022-09-28T08:06:31;2.33;;;1.40;;
49824;SDS011;35714;55.708;37.478;2022-09-28T08:08:57;13.48;;;1.70;;
49824;SDS011;35714;55.708;37.478;2022-09-28T08:11:44;7.00;;;1.95;;
49824;SDS011;35714;55.708;37.478;2022-09-28T08:14:32;2.75;;;1.17;;
49824;SDS011;35714;55.708;37.478;2022-09-28T08:17:18;7.72;;;1.45;;
49824;SDS011;35714;55.708;37.478;2022-09-28T08:19:47;3.63;;;0.90;;
49824;SDS011;35714;55.708;37.478;2022-09-28T08:22:32;2.50;;;1.03;;
49824;SDS011;35714;55.708;37.478;2022-09-28T08:24:59;2.85;;;1.15;;
49824;SDS011;35714;55.708;37.478;2022-09-28T08:27:25;3.33;;;1.23;;
49824;SDS011;35714;55.708;37.478;2022-09-28T08:29:50;4.50;;;1.40;;
49824;SDS011;35714;55.708;37.478;2022-09-28T08:32:34;2.80;;;1.30;;
49824;SDS011;35714;55.708;37.478;2022-09-28T08:35:20;3.50;;;1.30;;
49824;SDS011;35714;55.708;37.478;2022-09-28T08:38:06;3.33;;;1.15;;
49824;SDS011;35714;55.708;37.478;2022-09-28T08:46:33;3.60;;;1.27;;
49824;SDS011;35714;55.708;37.478;2022-09-28T08:52:27;3.83;;;1.80;;
49824;SDS011;35714;55.708;37.478;2022-09-28T08:55:29;3.35;;;1.65;;
49824;SDS011;35714;55.708;37.478;2022-09-28T08:58:04;4.07;;;1.48;;
49824;SDS011;35714;55.708;37.478;2022-09-28T09:00:38;2.97;;;1.38;;
49824;SDS011;35714;55.708;37.478;2022-09-28T09:06:27;3.35;;;1.48;;
49824;SDS011;35714;55.708;37.478;2022-09-28T09:18:46;3.60;;;1.40;;
49824;SDS011;35714;55.708;37.478;2022-09-28T09:21:58;4.05;;;1.77;;
49824;SDS011;35714;55.708;37.478;2022-09-28T09:27:50;3.38;;;1.50;;
49824;SDS011;35714;55.708;37.478;2022-09-28T09:46:54;4.88;;;1.55;;
49824;SDS011;35714;55.708;37.478;2022-09-28T09:52:49;4.28;;;1.83;;
49824;SDS011;35714;55.708;37.478;2022-09-28T09:55:54;5.55;;;1.63;;
49824;SDS011;35714;55.708;37.478;2022-09-28T09:58:36;3.42;;;1.27;;
49824;SDS011;35714;55.708;37.478;2022-09-28T10:01:20;3.78;;;1.27;;
49824;SDS011;35714;55.708;37.478;2022-09-28T10:04:36;3.10;;;1.33;;
49824;SDS011;35714;55.708;37.478;2022-09-28T10:07:14;4.28;;;2.03;;
49824;SDS011;35714;55.708;37.478;2022-09-28T10:09:46;2.72;;;1.27;;
49824;SDS011;35714;55.708;37.478;2022-09-28T10:12:35;3.97;;;1.92;;
49824;SDS011;35714;55.708;37.478;2022-09-28T10:15:01;3.25;;;1.38;;
49824;SDS011;35714;55.708;37.478;2022-09-28T10:17:36;3.83;;;1.70;;
49824;SDS011;35714;55.708;37.478;2022-09-28T10:20:33;3.45;;;1.52;;
49824;SDS011;35714;55.708;37.478;2022-09-28T10:23:18;3.80;;;1.48;;
49824;SDS011;35714;55.708;37.478;2022-09-28T10:25:48;3.72;;;1.73;;
49824;SDS011;35714;55.708;37.478;2022-09-28T10:28:18;3.50;;;1.67;;
49824;SDS011;35714;55.708;37.478;2022-09-28T10:30:50;5.93;;;1.77;;
49824;SDS011;35714;55.708;37.478;2022-09-28T10:33:29;3.42;;;1.40;;
49824;SDS011;35714;55.708;37.478;2022-09-28T10:35:57;3.15;;;1.42;;
49824;SDS011;35714;55.708;37.478;2022-09-28T10:38:24;3.53;;;1.52;;
49824;SDS011;35714;55.708;37.478;2022-09-28T10:40:53;3.60;;;1.50;;
49824;SDS011;35714;55.708;37.478;2022-09-28T10:43:52;4.85;;;1.40;;
49824;SDS011;35714;55.708;37.478;2022-09-28T10:46:43;5.05;;;1.40;;
49824;SDS011;35714;55.708;37.478;2022-09-28T10:49:19;3.00;;;1.40;;
49824;SDS011;35714;55.708;37.478;2022-09-28T10:51:52;3.08;;;1.40;;
49824;SDS011;35714;55.708;37.478;2022-09-28T10:54:51;3.00;;;1.40;;
49824;SDS011;35714;55.708;37.478;2022-09-28T10:57:28;4.07;;;1.65;;
49824;SDS011;35714;55.708;37.478;2022-09-28T11:00:03;4.85;;;2.08;;
49824;SDS011;35714;55.708;37.478;2022-09-28T11:05:25;3.20;;;1.45;;
49824;SDS011;35714;55.708;37.478;2022-09-28T11:07:57;3.90;;;1.75;;
49824;SDS011;35714;55.708;37.478;2022-09-28T11:10:30;4.97;;;1.85;;
49824;SDS011;35714;55.708;37.478;2022-09-28T11:13:07;3.92;;;1.98;;
49824;SDS011;35714;55.708;37.478;2022-09-28T11:15:33;4.22;;;1.80;;
49824;SDS011;35714;55.708;37.478;2022-09-28T11:20:49;3.67;;;1.65;;
49824;SDS011;35714;55.708;37.478;2022-09-28T11:23:33;4.90;;;2.30;;
49824;SDS011;35714;55.708;37.478;2022-09-28T11:28:38;4.18;;;1.90;;
49824;SDS011;35714;55.708;37.478;2022-09-28T11:31:13;5.72;;;2.95;;
49824;SDS011;35714;55.708;37.478;2022-09-28T11:34:05;5.50;;;2.47;;
49824;SDS011;35714;55.708;37.478;2022-09-28T11:48:03;4.95;;;1.77;;
49824;SDS011;35714;55.708;37.478;2022-09-28T11:50:52;4.05;;;1.85;;
49824;SDS011;35714;55.708;37.478;2022-09-28T11:54:24;4.18;;;1.67;;
49824;SDS011;35714;55.708;37.478;2022-09-28T11:56:40;7.50;;;2.55;;
49824;SDS011;35714;55.708;37.478;2022-09-28T12:01:55;8.40;;;3.60;;
49824;SDS011;35714;55.708;37.478;2022-09-28T12:09:49;9.45;;;4.20;;
49824;SDS011;35714;55.708;37.478;2022-09-28T12:12:22;8.55;;;4.35;;
49824;SDS011;35714;55.708;37.478;2022-09-28T12:14:52;7.60;;;3.67;;
49824;SDS011;35714;55.708;37.478;2022-09-28T12:17:29;7.75;;;3.75;;
49824;SDS011;35714;55.708;37.478;2022-09-28T12:20:02;7.65;;;2.92;;
49824;SDS011;35714;55.708;37.478;2022-09-28T12:23:37;5.40;;;2.92;;
49824;SDS011;35714;55.708;37.478;2022-09-28T12:25:57;6.00;;;3.08;;
49824;SDS011;35714;55.708;37.478;2022-09-28T12:28:35;5.78;;;2.00;;
49824;SDS011;35714;55.708;37.478;2022-09-28T12:31:08;5.00;;;1.95;;
49824;SDS011;35714;55.708;37.478;2022-09-28T12:33:44;6.03;;;2.53;;
49824;SDS011;35714;55.708;37.478;2022-09-28T12:44:31;7.63;;;1.95;;
49824;SDS011;35714;55.708;37.478;2022-09-28T13:00:13;5.50;;;2.60;;
49824;SDS011;35714;55.708;37.478;2022-09-28T13:05:57;3.88;;;1.48;;
49824;SDS011;35714;55.708;37.478;2022-09-28T13:11:03;3.80;;;1.80;;
49824;SDS011;35714;55.708;37.478;2022-09-28T13:16:38;6.57;;;1.67;;
49824;SDS011;35714;55.708;37.478;2022-09-28T13:19:23;6.93;;;2.10;;
49824;SDS011;35714;55.708;37.478;2022-09-28T13:24:43;4.57;;;2.05;;
49824;SDS011;35714;55.708;37.478;2022-09-28T13:30:02;5.20;;;1.65;;
49824;SDS011;35714;55.708;37.478;2022-09-28T13:32:30;3.92;;;1.75;;
49824;SDS011;35714;55.708;37.478;2022-09-28T13:34:58;8.40;;;2.50;;
49824;SDS011;35714;55.708;37.478;2022-09-28T13:37:26;10.82;;;2.75;;
49824;SDS011;35714;55.708;37.478;2022-09-28T13:55:57;6.25;;;1.88;;
49824;SDS011;35714;55.708;37.478;2022-09-28T13:58:41;8.98;;;2.40;;
49824;SDS011;35714;55.708;37.478;2022-09-28T14:06:41;8.30;;;2.10;;
49824;SDS011;35714;55.708;37.478;2022-09-28T14:14:25;4.38;;;1.92;;
49824;SDS011;35714;55.708;37.478;2022-09-28T14:19:49;9.02;;;3.47;;
49824;SDS011;35714;55.708;37.478;2022-09-28T14:22:45;7.30;;;2.90;;
49824;SDS011;35714;55.708;37.478;2022-09-28T14:25:25;9.00;;;3.38;;
49824;SDS011;35714;55.708;37.478;2022-09-28T14:30:54;11.50;;;5.57;;
49824;SDS011;35714;55.708;37.478;2022-09-28T14:33:27;9.18;;;5.18;;
49824;SDS011;35714;55.708;37.478;2022-09-28T14:36:04;10.93;;;3.72;;
49824;SDS011;35714;55.708;37.478;2022-09-28T14:38:45;5.37;;;2.70;;
49824;SDS011;35714;55.708;37.478;2022-09-28T14:41:34;5.55;;;1.98;;
49824;SDS011;35714;55.708;37.478;2022-09-28T14:44:10;7.13;;;2.95;;
49824;SDS011;35714;55.708;37.478;2022-09-28T14:46:44;14.15;;;2.85;;
49824;SDS011;35714;55.708;37.478;2022-09-28T14:54:13;6.38;;;2.17;;
49824;SDS011;35714;55.708;37.478;2022-09-28T14:59:30;6.05;;;2.17;;
49824;SDS011;35714;55.708;37.478;2022-09-28T15:02:19;5.28;;;1.98;;
49824;SDS011;35714;55.708;37.478;2022-09-28T15:04:52;4.00;;;1.95;;
49824;SDS011;35714;55.708;37.478;2022-09-28T15:09:55;5.25;;;1.73;;
49824;SDS011;35714;55.708;37.478;2022-09-28T15:12:24;5.45;;;1.77;;
49824;SDS011;35714;55.708;37.478;2022-09-28T15:17:33;3.00;;;1.40;;
49824;SDS011;35714;55.708;37.478;2022-09-28T15:22:48;7.28;;;1.63;;
49824;SDS011;35714;55.708;37.478;2022-09-28T15:25:18;9.68;;;2.40;;
49824;SDS011;35714;55.708;37.478;2022-09-28T15:27:55;4.97;;;1.98;;
49824;SDS011;35714;55.708;37.478;2022-09-28T15:32:57;5.28;;;2.35;;
49824;SDS011;35714;55.708;37.478;2022-09-28T15:35:44;6.05;;;2.95;;
49824;SDS011;35714;55.708;37.478;2022-09-28T15:38:22;7.90;;;3.50;;
49824;SDS011;35714;55.708;37.478;2022-09-28T15:40:48;9.45;;;3.92;;
49824;SDS011;35714;55.708;37.478;2022-09-28T15:43:24;8.07;;;3.65;;
49824;SDS011;35714;55.708;37.478;2022-09-28T15:51:10;4.30;;;1.50;;
49824;SDS011;35714;55.708;37.478;2022-09-28T15:53:41;3.15;;;1.48;;
49824;SDS011;35714;55.708;37.478;2022-09-28T15:56:11;5.25;;;1.58;;
49824;SDS011;35714;55.708;37.478;2022-09-28T15:58:37;6.18;;;2.25;;
49824;SDS011;35714;55.708;37.478;2022-09-28T16:01:37;6.43;;;2.88;;
49824;SDS011;35714;55.708;37.478;2022-09-28T16:12:20;4.70;;;2.40;;
49824;SDS011;35714;55.708;37.478;2022-09-28T16:14:47;5.07;;;2.00;;
49824;SDS011;35714;55.708;37.478;2022-09-28T16:17:25;6.03;;;1.92;;
49824;SDS011;35714;55.708;37.478;2022-09-28T16:20:02;8.18;;;1.60;;
49824;SDS011;35714;55.708;37.478;2022-09-28T16:22:42;4.82;;;1.70;;
49824;SDS011;35714;55.708;37.478;2022-09-28T16:25:13;5.57;;;1.38;;
49824;SDS011;35714;55.708;37.478;2022-09-28T16:27:43;4.57;;;1.33;;
49824;SDS011;35714;55.708;37.478;2022-09-28T16:30:14;4.70;;;1.55;;
49824;SDS011;35714;55.708;37.478;2022-09-28T16:32:54;4.75;;;1.77;;
49824;SDS011;35714;55.708;37.478;2022-09-28T16:38:16;5.80;;;1.80;;
49824;SDS011;35714;55.708;37.478;2022-09-28T16:40:42;4.40;;;1.88;;
49824;SDS011;35714;55.708;37.478;2022-09-28T16:43:22;5.38;;;1.70;;
49824;SDS011;35714;55.708;37.478;2022-09-28T16:45:52;6.13;;;2.35;;
49824;SDS011;35714;55.708;37.478;2022-09-28T16:48:26;5.85;;;2.72;;
49824;SDS011;35714;55.708;37.478;2022-09-28T16:50:55;13.63;;;6.38;;
49824;SDS011;35714;55.708;37.478;2022-09-28T16:53:21;14.68;;;7.82;;
49824;SDS011;35714;55.708;37.478;2022-09-28T16:56:06;13.77;;;7.10;;
49824;SDS011;35714;55.708;37.478;2022-09-28T16:58:32;17.60;;;7.05;;
49824;SDS011;35714;55.708;37.478;2022-09-28T17:00:58;10.80;;;5.47;;
49824;SDS011;35714;55.708;37.478;2022-09-28T17:03:26;8.30;;;3.83;;
49824;SDS011;35714;55.708;37.478;2022-09-28T17:05:53;6.38;;;2.70;;
49824;SDS011;35714;55.708;37.478;2022-09-28T17:08:20;6.07;;;2.67;;
49824;SDS011;35714;55.708;37.478;2022-09-28T17:10:49;6.45;;;2.75;;
49824;SDS011;35714;55.708;37.478;2022-09-28T17:13:18;4.80;;;2.20;;
49824;SDS011;35714;55.708;37.478;2022-09-28T17:15:45;4.47;;;1.88;;
49824;SDS011;35714;55.708;37.478;2022-09-28T17:18:15;5.05;;;2.58;;
49824;SDS011;35714;55.708;37.478;2022-09-28T17:20:43;4.85;;;2.40;;
49824;SDS011;35714;55.708;37.478;2022-09-28T17:23:12;4.57;;;2.30;;
49824;SDS011;35714;55.708;37.478;2022-09-28T17:25:38;10.00;;;2.28;;
49824;SDS011;35714;55.708;37.478;2022-09-28T17:28:05;5.53;;;2.65;;
49824;SDS011;35714;55.708;37.478;2022-09-28T17:30:45;8.10;;;3.38;;
49824;SDS011;35714;55.708;37.478;2022-09-28T17:33:11;6.07;;;3.05;;
49824;SDS011;35714;55.708;37.478;2022-09-28T17:35:37;5.97;;;3.17;;
49824;SDS011;35714;55.708;37.478;2022-09-28T17:38:03;6.95;;;2.83;;
49824;SDS011;35714;55.708;37.478;2022-09-28T17:40:29;5.97;;;2.67;;
49824;SDS011;35714;55.708;37.478;2022-09-28T17:42:55;7.40;;;2.88;;
49824;SDS011;35714;55.708;37.478;2022-09-28T17:45:22;6.18;;;2.88;;
49824;SDS011;35714;55.708;37.478;2022-09-28T17:47:51;6.45;;;2.72;;
49824;SDS011;35714;55.708;37.478;2022-09-28T17:50:27;4.90;;;2.63;;
49824;SDS011;35714;55.708;37.478;2022-09-28T17:52:56;6.63;;;2.40;;
49824;SDS011;35714;55.708;37.478;2022-09-28T17:55:25;5.75;;;2.65;;
49824;SDS011;35714;55.708;37.478;2022-09-28T17:57:53;6.43;;;2.45;;
49824;SDS011;35714;55.708;37.478;2022-09-28T18:00:20;4.78;;;1.95;;
49824;SDS011;35714;55.708;37.478;2022-09-28T18:02:47;4.72;;;1.73;;
49824;SDS011;35714;55.708;37.478;2022-09-28T18:05:13;5.65;;;2.10;;
49824;SDS011;35714;55.708;37.478;2022-09-28T18:07:39;4.25;;;1.52;;
49824;SDS011;35714;55.708;37.478;2022-09-28T18:10:06;5.20;;;1.73;;
49824;SDS011;35714;55.708;37.478;2022-09-28T18:12:37;9.38;;;1.88;;
49824;SDS011;35714;55.708;37.478;2022-09-28T18:15:03;7.18;;;1.90;;
49824;SDS011;35714;55.708;37.478;2022-09-28T18:17:30;6.00;;;1.95;;
49824;SDS011;35714;55.708;37.478;2022-09-28T18:19:56;4.60;;;1.80;;
49824;SDS011;35714;55.708;37.478;2022-09-28T18:22:21;4.43;;;1.83;;
49824;SDS011;35714;55.708;37.478;2022-09-28T18:24:47;4.90;;;1.83;;
49824;SDS011;35714;55.708;37.478;2022-09-28T18:27:13;3.83;;;1.75;;
49824;SDS011;35714;55.708;37.478;2022-09-28T18:29:39;5.68;;;2.42;;
49824;SDS011;35714;55.708;37.478;2022-09-28T18:32:05;6.22;;;2.42;;
49824;SDS011;35714;55.708;37.478;2022-09-28T18:34:33;5.60;;;2.45;;
49824;SDS011;35714;55.708;37.478;2022-09-28T18:37:00;4.68;;;2.65;;
49824;SDS011;35714;55.708;37.478;2022-09-28T18:39:26;5.65;;;3.15;;
49824;SDS011;35714;55.708;37.478;2022-09-28T18:41:52;6.15;;;2.40;;
49824;SDS011;35714;55.708;37.478;2022-09-28T18:44:17;5.13;;;2.60;;